Anderson Springs, California
Current Conditions -  °F | °C
As of 4:53 PM on Monday 26 Jan 2015 (Local Time) from KSTS Reporting Station
Clear Clear  
Wind Chill: 16°   Ceiling: Unl
Heat Index: 16°   Visibility: 10mi
Dew Point:   Wind: 5mph
Humidity: 62%   Direction: 180°S
Pressure: 29.95"   Gusts: NA
Location:  38.7763°N, 122.598°W
Report Text: KSTS 270053Z 18004KT 10SM CLR 16/09 A2995 RMK AO2 SLP137 T01610089
Loading
Personal Weather Stations






























Interactive Weather Map New forecast layout! Learn more

10-Day Weather Forecast

Advertisements
Track Severe Weather on mobile